Time;durP1;ratioP1;P1;durP2;ratioP2;P2;SDS_P1;SDS_P2;PMS_P1;PMS_P2;Temp;Humidity;BMP_temperature;BMP_pressure;BME280_temperature;BME280_humidity;BME280_pressure;Samples;Min_cycle;Max_cycle;Signal;HPM_P1;HPM_P2
2022/04/13 00:02:13;;;;;;;5.37;3.90;;;;;;;8.52;72.75;100186.25;5072192;28;20661;-73
2022/04/13 00:04:39;;;;;;;3.83;3.53;;;;;;;8.55;72.77;100188.41;5071867;28;20178;-72
2022/04/13 00:07:04;;;;;;;3.33;3.03;;;;;;;8.50;72.79;100183.84;5071548;28;20185;-72
2022/04/13 00:09:30;;;;;;;3.53;3.23;;;;;;;8.42;73.41;100179.13;5071836;28;20265;-73
2022/04/13 00:11:55;;;;;;;4.87;3.27;;;;;;;8.51;72.97;100185.47;5071641;28;20236;-71
2022/04/13 00:14:24;;;;;;;3.87;3.40;;;;;;;8.55;72.83;100185.69;5071720;28;20174;-73
2022/04/13 00:16:51;;;;;;;3.97;3.23;;;;;;;8.56;73.23;100176.41;5071525;28;20175;-71
2022/04/13 00:19:17;;;;;;;3.50;3.20;;;;;;;8.70;73.69;100179.91;5071612;28;20202;-72
2022/04/13 00:21:43;;;;;;;3.97;3.67;;;;;;;8.74;73.60;100183.63;5071467;28;20170;-72
2022/04/13 00:24:09;;;;;;;3.50;3.20;;;;;;;8.65;74.17;100180.81;5071541;28;20636;-74
2022/04/13 00:26:34;;;;;;;3.57;3.27;;;;;;;8.60;74.05;100182.84;5071249;28;20625;-71
2022/04/13 00:29:01;;;;;;;4.00;3.60;;;;;;;8.63;75.00;100183.03;5071183;28;20642;-73
2022/04/13 00:31:27;;;;;;;3.33;3.03;;;;;;;8.44;75.36;100178.81;5070114;28;20545;-72
2022/04/13 00:33:52;;;;;;;3.40;3.10;;;;;;;8.53;76.43;100176.97;5071421;28;20196;-72
2022/04/13 00:36:17;;;;;;;5.80;4.67;;;;;;;8.63;76.44;100182.22;5071278;28;20690;-73
2022/04/13 00:38:43;;;;;;;3.70;3.40;;;;;;;8.64;75.86;100173.75;5070874;28;20171;-71
2022/04/13 00:41:08;;;;;;;3.50;3.20;;;;;;;8.61;75.67;100184.44;5070737;28;20629;-72
2022/04/13 00:43:33;;;;;;;3.17;2.97;;;;;;;8.50;75.28;100172.97;5071152;28;20297;-72
2022/04/13 00:45:59;;;;;;;4.67;2.80;;;;;;;8.58;75.55;100182.34;5070993;28;20250;-74
2022/04/13 00:48:39;;;;;;;3.40;2.70;;;;;;;8.44;75.16;100181.53;5070791;28;20229;-72
2022/04/13 00:51:05;;;;;;;2.83;2.63;;;;;;;8.36;75.76;100177.59;5071005;28;20186;-72
2022/04/13 00:53:34;;;;;;;2.77;2.53;;;;;;;8.31;76.00;100174.97;5070876;28;20634;-72
2022/04/13 00:56:02;;;;;;;2.67;2.47;;;;;;;8.17;76.40;100171.44;5071113;28;20183;-72
2022/04/13 00:58:31;;;;;;;3.90;2.37;;;;;;;8.08;76.70;100174.03;5066649;28;20185;-72
2022/04/13 01:00:57;;;;;;;3.20;2.90;;;;;;;7.99;77.00;100175.84;5071164;28;20182;-77
2022/04/13 01:03:24;;;;;;;3.53;2.63;;;;;;;7.90;76.88;100175.72;5071183;28;20171;-74
2022/04/13 01:05:51;;;;;;;2.80;2.50;;;;;;;7.87;77.31;100186.41;5071102;28;20249;-75
2022/04/13 01:08:17;;;;;;;2.70;2.50;;;;;;;7.83;76.72;100179.97;5071017;28;20178;-74
2022/04/13 01:10:45;;;;;;;2.87;2.50;;;;;;;7.82;77.63;100184.59;5071326;28;20170;-71
2022/04/13 01:13:11;;;;;;;2.40;2.20;;;;;;;7.84;77.65;100184.31;5071135;28;20182;-73
2022/04/13 01:15:37;;;;;;;2.93;2.57;;;;;;;7.86;78.78;100182.88;5070649;28;20170;-73
2022/04/13 01:18:03;;;;;;;3.00;2.60;;;;;;;7.80;77.18;100185.97;5070967;28;20270;-72
2022/04/13 01:20:29;;;;;;;2.83;2.63;;;;;;;7.88;77.75;100183.41;5071062;28;20170;-73
2022/04/13 01:22:54;;;;;;;6.20;3.70;;;;;;;7.91;77.21;100185.50;5071021;28;20171;-73
2022/04/13 01:25:20;;;;;;;3.43;2.50;;;;;;;7.92;77.12;100181.69;5071085;28;20673;-73
2022/04/13 01:27:45;;;;;;;3.43;2.10;;;;;;;7.94;77.74;100190.34;5070808;28;20265;-73
2022/04/13 01:30:12;;;;;;;2.13;1.70;;;;;;;7.94;76.68;100189.53;5070954;28;20181;-73
2022/04/13 01:32:37;;;;;;;2.13;1.90;;;;;;;7.94;76.81;100192.25;5070844;28;20217;-72
2022/04/13 01:35:03;;;;;;;2.07;1.63;;;;;;;7.95;75.41;100185.72;5070960;28;20170;-72
2022/04/13 01:37:28;;;;;;;1.97;1.80;;;;;;;8.01;75.64;100188.06;5070859;28;20182;-74
2022/04/13 01:39:54;;;;;;;1.93;1.83;;;;;;;8.02;75.45;100191.56;5070829;28;20186;-72
2022/04/13 01:42:19;;;;;;;2.30;2.10;;;;;;;8.00;73.76;100186.44;5070531;28;20696;-74
2022/04/13 01:44:45;;;;;;;2.07;1.63;;;;;;;7.87;74.54;100192.66;5070751;28;20210;-76
2022/04/13 01:47:11;;;;;;;3.33;2.20;;;;;;;7.99;74.94;100186.75;5070641;28;20171;-72
2022/04/13 01:49:37;;;;;;;2.37;2.10;;;;;;;8.02;75.43;100194.28;5070788;28;20175;-74
2022/04/13 01:52:04;;;;;;;1.93;1.80;;;;;;;7.95;75.40;100197.38;5070915;28;20246;-75
2022/04/13 01:54:29;;;;;;;1.57;1.47;;;;;;;7.91;75.57;100188.22;5070660;28;20808;-72
2022/04/13 01:56:55;;;;;;;1.83;1.67;;;;;;;7.96;74.74;100196.31;5070638;28;20177;-75
2022/04/13 01:59:20;;;;;;;3.43;2.20;;;;;;;8.09;73.33;100188.44;5070579;28;20178;-72
2022/04/13 02:01:46;;;;;;;1.50;1.40;;;;;;;8.38;70.85;100191.72;5070665;28;20227;-72
2022/04/13 02:04:22;;;;;;;2.20;1.30;;;;;;;8.43;70.70;100188.91;5070685;28;20760;-72
2022/04/13 02:06:48;;;;;;;1.93;1.83;;;;;;;8.13;72.66;100190.28;5070527;28;20626;-73
2022/04/13 02:09:15;;;;;;;2.43;2.23;;;;;;;8.00;73.87;100185.63;5070546;28;20185;-75
2022/04/13 02:11:41;;;;;;;2.80;2.40;;;;;;;7.85;74.83;100184.00;5070541;28;20711;-75
2022/04/13 02:14:07;;;;;;;2.50;2.27;;;;;;;7.81;75.45;100187.59;5070535;28;20201;-72
2022/04/13 02:16:33;;;;;;;2.80;2.57;;;;;;;7.79;75.45;100177.03;5070551;28;20257;-75
2022/04/13 02:18:58;;;;;;;2.87;2.67;;;;;;;7.84;75.82;100181.59;5070502;28;20250;-75
2022/04/13 02:21:23;;;;;;;4.93;2.00;;;;;;;7.82;75.88;100181.88;5070389;28;20171;-72
2022/04/13 02:23:49;;;;;;;2.73;2.53;;;;;;;7.90;75.53;100181.19;5070457;28;20181;-72
2022/04/13 02:26:14;;;;;;;2.20;2.10;;;;;;;7.91;74.37;100180.06;5070314;28;20178;-73
2022/04/13 02:28:40;;;;;;;2.67;2.47;;;;;;;7.91;74.37;100177.34;5072386;28;20178;-73
2022/04/13 02:31:05;;;;;;;3.00;2.70;;;;;;;7.74;75.64;100185.28;5073958;28;20714;-75
2022/04/13 02:33:33;;;;;;;3.17;2.27;;;;;;;7.71;76.27;100185.88;5074099;28;20170;-74
2022/04/13 02:35:59;;;;;;;2.83;2.60;;;;;;;7.62;76.34;100185.75;5074083;28;20568;-72
2022/04/13 02:38:25;;;;;;;2.60;2.40;;;;;;;7.58;76.88;100187.44;5073338;28;20253;-73
2022/04/13 02:40:51;;;;;;;3.07;2.87;;;;;;;7.33;78.25;100188.66;5073425;28;20205;-72
2022/04/13 02:43:16;;;;;;;3.10;2.90;;;;;;;7.54;78.66;100188.34;5073109;28;20166;-77
2022/04/13 02:45:41;;;;;;;3.73;3.00;;;;;;;7.61;78.80;100177.88;5073471;28;20186;-73
2022/04/13 02:48:08;;;;;;;3.20;2.90;;;;;;;7.73;78.74;100176.31;5073083;28;20244;-72
2022/04/13 02:50:33;;;;;;;4.20;2.93;;;;;;;7.70;78.60;100176.13;5073297;28;20202;-72
2022/04/13 02:52:59;;;;;;;3.10;2.73;;;;;;;7.68;78.06;100178.31;5073162;28;20678;-73
2022/04/13 02:55:24;;;;;;;3.23;2.93;;;;;;;7.72;78.19;100180.13;5073109;28;20254;-72
2022/04/13 02:57:49;;;;;;;2.63;2.43;;;;;;;7.66;78.12;100177.78;5072814;28;20170;-72
2022/04/13 03:00:15;;;;;;;2.10;1.90;;;;;;;7.63;77.75;100179.19;5073254;28;20606;-76
2022/04/13 03:02:41;;;;;;;2.23;2.03;;;;;;;7.60;77.55;100179.00;5073091;28;20185;-73
2022/04/13 03:05:07;;;;;;;1.67;1.37;;;;;;;7.50;76.15;100176.44;5073481;28;20183;-72
2022/04/13 03:07:33;;;;;;;2.33;2.13;;;;;;;7.55;76.66;100185.34;5073187;28;20177;-72
2022/04/13 03:10:01;;;;;;;4.37;1.90;;;;;;;7.43;76.89;100179.56;5073017;28;20186;-73
2022/04/13 03:12:27;;;;;;;2.60;2.17;;;;;;;7.38;77.24;100191.31;5072803;28;20737;-72
2022/04/13 03:14:52;;;;;;;1.83;1.70;;;;;;;7.24;79.13;100189.66;5073046;28;20257;-72
2022/04/13 03:17:17;;;;;;;2.23;1.90;;;;;;;7.36;79.80;100190.78;5072721;28;20178;-74
2022/04/13 03:19:43;;;;;;;3.33;2.73;;;;;;;7.42;79.86;100191.53;5072780;28;20695;-72
2022/04/13 03:22:08;;;;;;;2.30;2.10;;;;;;;7.33;80.09;100188.66;5072687;28;20171;-72
2022/04/13 03:24:36;;;;;;;3.20;2.90;;;;;;;7.36;80.96;100184.53;5072659;28;20205;-73
2022/04/13 03:27:02;;;;;;;2.53;2.33;;;;;;;7.35;80.84;100191.09;5072391;28;20174;-74
2022/04/13 03:29:27;;;;;;;2.50;2.30;;;;;;;7.25;81.25;100183.13;5072435;28;20687;-72
2022/04/13 03:31:52;;;;;;;2.50;2.30;;;;;;;7.18;81.55;100185.38;5072451;28;20238;-73
2022/04/13 03:34:20;;;;;;;2.73;2.13;;;;;;;7.12;81.54;100182.75;5072594;28;20561;-71
2022/04/13 03:36:50;;;;;;;2.43;2.13;;;;;;;7.09;81.28;100182.53;5072399;28;20692;-74
2022/04/13 03:39:16;;;;;;;3.30;2.37;;;;;;;6.98;82.62;100186.50;5071706;28;20187;-73
2022/04/13 03:41:42;;;;;;;2.07;1.80;;;;;;;7.06;82.66;100197.50;5072162;28;20210;-73
2022/04/13 03:44:08;;;;;;;2.97;1.87;;;;;;;7.06;82.53;100189.34;5072483;28;20508;-72
2022/04/13 03:46:33;;;;;;;2.97;1.83;;;;;;;7.09;82.02;100185.25;5072348;28;20185;-72
2022/04/13 03:48:59;;;;;;;1.87;1.67;;;;;;;7.05;82.26;100192.34;5072591;28;20178;-72
2022/04/13 03:51:25;;;;;;;1.97;1.63;;;;;;;7.09;82.35;100194.22;5072800;28;20537;-72
2022/04/13 03:53:50;;;;;;;2.60;2.40;;;;;;;7.05;82.60;100192.34;5072701;28;20557;-72
2022/04/13 03:56:16;;;;;;;2.50;2.30;;;;;;;7.08;82.90;100200.72;5072539;28;20167;-72
2022/04/13 03:58:41;;;;;;;2.43;2.23;;;;;;;7.03;83.29;100206.25;5072031;28;20577;-72
2022/04/13 04:01:10;;;;;;;3.00;2.70;;;;;;;6.96;83.91;100200.38;5072312;28;20179;-71
2022/04/13 04:03:36;;;;;;;3.83;3.20;;;;;;;6.97;84.39;100214.75;5072480;28;20163;-73
2022/04/13 04:06:02;;;;;;;3.77;3.43;;;;;;;6.98;84.40;100217.19;5072252;28;20178;-72
2022/04/13 04:08:28;;;;;;;3.33;3.03;;;;;;;6.93;84.83;100221.84;5072210;28;20639;-72
2022/04/13 04:10:54;;;;;;;2.83;2.57;;;;;;;6.93;85.26;100217.22;5072128;28;20257;-72
2022/04/13 04:13:20;;;;;;;2.33;2.13;;;;;;;6.86;85.82;100222.22;5072233;28;20261;-73
2022/04/13 04:15:45;;;;;;;2.60;2.40;;;;;;;6.82;87.11;100222.00;5072139;28;20277;-72
2022/04/13 04:18:10;;;;;;;3.93;2.53;;;;;;;6.71;87.47;100219.72;5071960;28;20283;-71
2022/04/13 04:20:36;;;;;;;2.63;2.20;;;;;;;6.70;87.87;100220.81;5072387;28;20262;-71
2022/04/13 04:23:01;;;;;;;2.40;1.80;;;;;;;6.67;87.91;100214.06;5072184;28;20630;-72
2022/04/13 04:25:26;;;;;;;2.13;1.43;;;;;;;6.70;88.11;100218.91;5074134;28;20228;-71
2022/04/13 04:27:52;;;;;;;2.93;1.63;;;;;;;6.75;88.03;100218.03;5072165;28;20654;-72
2022/04/13 04:30:17;;;;;;;1.53;1.20;;;;;;;6.80;88.37;100218.78;5072060;28;20524;-71
2022/04/13 04:32:42;;;;;;;1.60;1.50;;;;;;;6.83;87.62;100220.09;5072135;28;20281;-71
2022/04/13 04:35:08;;;;;;;1.70;1.60;;;;;;;6.83;87.14;100222.81;5072722;28;20625;-71
2022/04/13 04:37:34;;;;;;;1.87;1.57;;;;;;;6.91;87.35;100221.34;5072005;28;20175;-71
2022/04/13 04:39:59;;;;;;;5.10;1.70;;;;;;;6.87;87.64;100237.41;5071610;28;20414;-71
2022/04/13 04:42:26;;;;;;;2.57;2.10;;;;;;;6.83;88.33;100233.69;5071474;28;20175;-72
2022/04/13 04:44:57;;;;;;;3.33;2.90;;;;;;;6.75;88.19;100223.47;5071482;28;20177;-71
2022/04/13 04:47:23;;;;;;;2.10;1.83;;;;;;;6.72;88.52;100226.75;5071333;28;20224;-73
2022/04/13 04:49:49;;;;;;;2.87;2.10;;;;;;;6.75;87.19;100234.31;5071161;28;20202;-72
2022/04/13 04:52:14;;;;;;;3.40;1.67;;;;;;;6.78;86.57;100231.81;5066665;28;20760;-73
2022/04/13 04:54:39;;;;;;;4.90;1.83;;;;;;;6.94;86.68;100237.84;5071902;28;20186;-71
2022/04/13 04:57:05;;;;;;;1.53;1.43;;;;;;;7.04;86.33;100240.44;5070373;28;20691;-72
2022/04/13 04:59:30;;;;;;;1.57;1.47;;;;;;;7.10;85.28;100236.56;5071763;28;20186;-72
2022/04/13 05:01:55;;;;;;;1.20;1.10;;;;;;;7.13;85.15;100229.75;5071789;28;20530;-71
2022/04/13 05:04:21;;;;;;;1.70;1.60;;;;;;;7.17;84.87;100241.63;5071719;28;20179;-72
2022/04/13 05:06:46;;;;;;;1.47;1.37;;;;;;;7.24;84.93;100235.84;5071613;28;20228;-71
2022/04/13 05:09:11;;;;;;;1.57;1.27;;;;;;;7.32;83.69;100237.88;5071744;28;20529;-71
2022/04/13 05:11:37;;;;;;;1.87;1.47;;;;;;;7.38;83.53;100242.16;5071314;28;20218;-72
2022/04/13 05:14:02;;;;;;;2.67;1.20;;;;;;;7.56;81.86;100244.03;5071522;28;20419;-71
2022/04/13 05:16:28;;;;;;;2.27;1.53;;;;;;;7.72;80.37;100242.69;5071404;28;20174;-71
2022/04/13 05:18:53;;;;;;;2.00;1.47;;;;;;;7.98;78.37;100242.25;5071196;28;20181;-71
2022/04/13 05:21:18;;;;;;;4.60;1.40;;;;;;;8.02;76.36;100233.19;5071540;28;20228;-71
2022/04/13 05:23:43;;;;;;;1.63;1.50;;;;;;;8.32;74.50;100239.19;5071548;28;20644;-72
2022/04/13 05:26:09;;;;;;;1.53;1.30;;;;;;;8.54;74.37;100242.06;5071354;28;20197;-73
2022/04/13 05:28:35;;;;;;;1.40;1.30;;;;;;;8.62;73.56;100241.31;5070771;28;20177;-71
2022/04/13 05:31:00;;;;;;;2.97;2.17;;;;;;;8.75;72.69;100231.53;5066478;28;20202;-72
2022/04/13 05:33:26;;;;;;;2.60;1.90;;;;;;;8.85;71.75;100244.97;5071014;28;20178;-72
2022/04/13 05:35:51;;;;;;;2.90;2.33;;;;;;;8.92;71.58;100250.78;5070911;28;20181;-71
2022/04/13 05:38:17;;;;;;;2.33;2.17;;;;;;;9.01;70.61;100241.91;5070921;28;20162;-73
2022/04/13 05:40:44;;;;;;;2.40;2.20;;;;;;;9.09;71.15;100246.63;5071090;28;20187;-71
2022/04/13 05:43:09;;;;;;;2.67;2.47;;;;;;;9.10;72.02;100250.94;5071029;28;20177;-72
2022/04/13 05:45:34;;;;;;;2.47;2.20;;;;;;;9.18;71.51;100253.78;5070982;28;20166;-71
2022/04/13 05:48:00;;;;;;;3.00;2.37;;;;;;;9.34;71.46;100261.59;5071031;28;20257;-73
2022/04/13 05:50:25;;;;;;;2.90;2.63;;;;;;;9.45;69.71;100261.06;5071058;28;20166;-71
2022/04/13 05:52:51;;;;;;;2.80;1.97;;;;;;;9.68;70.21;100263.78;5070805;28;20202;-72
2022/04/13 05:55:16;;;;;;;2.43;1.80;;;;;;;10.26;66.23;100262.91;5071015;28;20181;-71
2022/04/13 05:57:42;;;;;;;2.07;1.37;;;;;;;10.76;64.38;100262.66;5069447;28;20626;-71
2022/04/13 06:00:10;;;;;;;1.77;1.60;;;;;;;11.29;60.96;100254.25;5070811;28;20250;-71
2022/04/13 06:02:36;;;;;;;2.83;2.07;;;;;;;11.46;61.99;100264.38;5072958;28;20239;-72
2022/04/13 06:05:02;;;;;;;3.13;2.87;;;;;;;11.37;63.91;100266.28;5074528;28;20204;-71
2022/04/13 06:07:27;;;;;;;3.97;3.30;;;;;;;11.16;66.10;100280.59;5074565;28;20179;-72
2022/04/13 06:09:53;;;;;;;3.47;3.20;;;;;;;10.72;67.88;100276.94;5074548;28;20216;-72
2022/04/13 06:12:22;;;;;;;4.80;4.20;;;;;;;10.62;69.19;100276.41;5074388;28;20296;-72
2022/04/13 06:14:48;;;;;;;7.60;4.40;;;;;;;10.51;69.41;100281.34;5074470;28;20210;-71
2022/04/13 06:17:13;;;;;;;4.60;4.20;;;;;;;10.65;69.85;100290.25;5074388;28;20205;-71
2022/04/13 06:19:38;;;;;;;4.80;3.57;;;;;;;10.78;69.38;100293.19;5074434;28;20179;-72
2022/04/13 06:22:30;;;;;;;4.60;4.20;;;;;;;10.88;69.31;100304.66;5074051;28;20172;-72
2022/04/13 06:24:55;;;;;;;4.07;3.67;;;;;;;10.95;69.56;100312.38;5071571;28;20190;-72
2022/04/13 06:27:21;;;;;;;3.87;3.47;;;;;;;11.00;69.64;100314.97;5073816;28;20623;-72
2022/04/13 06:29:46;;;;;;;5.80;3.73;;;;;;;11.04;70.14;100313.22;5074106;28;20264;-74
2022/04/13 06:32:14;;;;;;;3.97;3.50;;;;;;;11.14;69.99;100320.28;5073865;28;20198;-74
2022/04/13 06:34:40;;;;;;;4.93;3.30;;;;;;;11.19;69.87;100322.91;5074173;28;20172;-72
2022/04/13 06:37:05;;;;;;;4.73;4.23;;;;;;;11.22;70.73;100323.06;5073610;28;20536;-72
2022/04/13 06:39:31;;;;;;;3.93;3.37;;;;;;;11.28;70.46;100321.81;5073577;28;20632;-72
2022/04/13 06:41:56;;;;;;;4.87;4.47;;;;;;;11.29;70.10;100322.59;5072782;28;20171;-72
2022/04/13 06:44:21;;;;;;;5.00;4.60;;;;;;;11.23;70.24;100340.28;5068594;28;20187;-72
2022/04/13 06:46:47;;;;;;;4.77;3.47;;;;;;;11.33;71.08;100332.59;5073455;28;20194;-73
2022/04/13 06:49:12;;;;;;;5.30;3.80;;;;;;;11.37;69.25;100331.94;5073242;28;20182;-71
2022/04/13 06:51:38;;;;;;;3.80;3.50;;;;;;;11.53;68.17;100324.88;5073537;28;20680;-72
2022/04/13 06:54:03;;;;;;;4.50;4.20;;;;;;;11.68;67.93;100331.81;5073866;28;20171;-72
2022/04/13 06:56:29;;;;;;;4.50;4.00;;;;;;;11.75;68.96;100326.66;5073381;28;20171;-72
2022/04/13 06:58:54;;;;;;;4.20;3.80;;;;;;;11.86;68.63;100331.53;5073419;28;20185;-71
2022/04/13 07:01:20;;;;;;;4.17;3.30;;;;;;;12.00;68.17;100322.31;5072690;28;20174;-74
2022/04/13 07:03:45;;;;;;;3.83;3.50;;;;;;;12.14;67.10;100328.44;5073427;28;20182;-72
2022/04/13 07:06:10;;;;;;;3.50;2.67;;;;;;;12.29;65.86;100324.38;5073340;28;20213;-72
2022/04/13 07:08:36;;;;;;;2.80;2.50;;;;;;;12.71;63.79;100325.38;5073433;28;20171;-72
2022/04/13 07:11:01;;;;;;;2.57;1.57;;;;;;;13.30;58.83;100317.19;5071264;28;20551;-71
2022/04/13 07:13:26;;;;;;;2.00;1.40;;;;;;;13.66;55.80;100320.19;5070295;28;20208;-71
2022/04/13 07:15:52;;;;;;;2.23;1.57;;;;;;;13.89;54.63;100325.34;5071960;28;20182;-71
2022/04/13 07:18:18;;;;;;;7.27;5.70;;;;;;;13.99;54.39;100325.72;5073736;28;20182;-72
2022/04/13 07:20:44;;;;;;;4.60;4.17;;;;;;;14.26;55.32;100318.84;5073475;28;20174;-71
2022/04/13 07:23:09;;;;;;;4.27;3.97;;;;;;;13.65;65.76;100321.31;5074012;28;20228;-72
2022/04/13 07:25:34;;;;;;;4.20;3.90;;;;;;;13.63;67.79;100326.34;5073620;28;20175;-72
2022/04/13 07:28:00;;;;;;;4.40;3.40;;;;;;;13.53;66.57;100331.44;5073156;28;20187;-72
2022/04/13 07:30:25;;;;;;;4.13;3.80;;;;;;;13.54;67.43;100327.53;5073112;28;20185;-73
2022/04/13 07:32:52;;;;;;;5.33;4.30;;;;;;;13.69;65.58;100330.50;5073592;28;20282;-71
2022/04/13 07:35:18;;;;;;;3.57;3.27;;;;;;;13.87;65.76;100333.09;5073185;28;20174;-71
2022/04/13 07:37:43;;;;;;;3.83;3.53;;;;;;;13.88;65.75;100335.50;5073112;28;20635;-71
2022/04/13 07:40:14;;;;;;;4.23;3.83;;;;;;;13.86;57.66;100331.50;5073095;28;20189;-71
2022/04/13 07:42:39;;;;;;;4.20;3.80;;;;;;;13.89;64.95;100331.66;5073341;28;20257;-72
2022/04/13 07:45:06;;;;;;;4.53;4.13;;;;;;;14.04;61.43;100343.94;5072831;28;20253;-71
2022/04/13 07:47:31;;;;;;;7.33;4.10;;;;;;;14.17;53.26;100342.03;5072736;28;20260;-71
2022/04/13 07:49:57;;;;;;;7.87;4.37;;;;;;;14.32;50.70;100335.94;5073018;28;20228;-71
2022/04/13 07:52:23;;;;;;;5.90;5.03;;;;;;;14.41;63.63;100339.38;5073185;28;20614;-71
2022/04/13 07:54:48;;;;;;;5.17;4.67;;;;;;;14.42;65.29;100335.47;5073111;28;20309;-72
2022/04/13 07:57:15;;;;;;;5.07;4.00;;;;;;;14.63;63.08;100353.91;5072742;28;20167;-71
2022/04/13 07:59:41;;;;;;;8.00;4.53;;;;;;;14.72;63.84;100340.84;5072714;28;20178;-72
2022/04/13 08:02:08;;;;;;;4.57;4.20;;;;;;;14.85;63.50;100368.03;5072196;28;20167;-78
2022/04/13 08:04:34;;;;;;;4.30;3.83;;;;;;;15.07;63.94;100374.25;5072089;28;20174;-76
2022/04/13 08:06:59;;;;;;;4.90;4.50;;;;;;;15.25;64.79;100363.81;5072481;28;20171;-72
2022/04/13 08:09:25;;;;;;;5.27;4.77;;;;;;;15.36;65.27;100365.75;5072221;28;20266;-72
2022/04/13 08:11:52;;;;;;;7.97;4.67;;;;;;;15.47;66.35;100333.81;5067710;28;20202;-71
2022/04/13 08:14:21;;;;;;;6.03;5.43;;;;;;;15.76;66.54;100362.25;5072297;28;20182;-73
2022/04/13 08:16:46;;;;;;;4.77;4.37;;;;;;;15.94;66.16;100366.38;5072011;28;20249;-72
2022/04/13 08:19:12;;;;;;;5.70;2.70;;;;;;;16.17;61.24;100361.09;5072496;28;20269;-72
2022/04/13 08:21:40;;;;;;;5.50;3.50;;;;;;;16.43;61.27;100359.84;5073080;28;20171;-72
2022/04/13 08:24:06;;;;;;;3.80;2.33;;;;;;;16.53;57.90;100356.56;5072537;28;20170;-72
2022/04/13 08:26:32;;;;;;;3.03;2.13;;;;;;;16.65;54.02;100370.28;5072378;28;20209;-72
2022/04/13 08:28:57;;;;;;;4.20;2.10;;;;;;;16.76;52.33;100348.50;5072061;28;20253;-73
2022/04/13 08:31:23;;;;;;;2.37;1.53;;;;;;;16.89;50.42;100350.03;5072250;28;20198;-72
2022/04/13 08:33:48;;;;;;;3.53;2.30;;;;;;;16.99;50.80;100354.22;5072257;28;20529;-72
2022/04/13 08:36:14;;;;;;;2.30;1.63;;;;;;;17.06;51.17;100348.88;5072095;28;20182;-72
2022/04/13 08:38:40;;;;;;;2.03;1.60;;;;;;;17.11;50.61;100349.41;5071897;28;20239;-71
2022/04/13 08:41:14;;;;;;;1.67;1.47;;;;;;;17.14;50.05;100354.22;5072098;28;20221;-72
2022/04/13 08:43:52;;;;;;;2.93;1.87;;;;;;;17.18;50.50;100359.81;5071778;28;20181;-71
2022/04/13 08:46:27;;;;;;;2.63;1.80;;;;;;;17.28;51.81;100361.25;5071304;28;20664;-71
2022/04/13 08:48:57;;;;;;;1.60;1.50;;;;;;;17.34;50.91;100368.88;5071315;28;20166;-72
2022/04/13 08:51:24;;;;;;;2.07;1.70;;;;;;;17.40;49.81;100388.75;5071167;28;20312;-72
2022/04/13 08:54:10;;;;;;;3.27;1.50;;;;;;;17.56;49.97;100372.94;5070938;28;20166;-72
2022/04/13 08:56:39;;;;;;;2.73;1.33;;;;;;;17.63;48.55;100369.53;5070854;28;20182;-72
2022/04/13 08:59:29;;;;;;;1.47;1.37;;;;;;;17.59;48.54;100369.47;5069648;28;20231;-72
2022/04/13 09:02:09;;;;;;;2.00;1.00;;;;;;;17.68;48.44;100367.34;5069866;28;20296;-72
2022/04/13 09:04:38;;;;;;;2.03;1.47;;;;;;;17.73;50.02;100366.25;5070868;28;20665;-72
2022/04/13 09:07:05;;;;;;;2.53;1.87;;;;;;;17.69;48.66;100357.09;5069401;28;20529;-72
2022/04/13 09:09:37;;;;;;;1.97;1.50;;;;;;;17.70;48.78;100359.47;5071048;28;20606;-72
2022/04/13 09:12:03;;;;;;;2.50;1.30;;;;;;;17.82;49.15;100353.81;5070846;28;20249;-72
2022/04/13 09:14:29;;;;;;;1.43;1.33;;;;;;;17.87;48.96;100349.97;5070994;28;20198;-71
2022/04/13 09:16:56;;;;;;;2.07;1.30;;;;;;;17.91;49.53;100350.03;5070526;28;20175;-72
2022/04/13 09:19:24;;;;;;;1.73;1.20;;;;;;;17.93;48.25;100356.00;5068808;28;20261;-72
2022/04/13 09:21:51;;;;;;;3.23;1.80;;;;;;;18.05;49.39;100356.66;5065860;28;20185;-71
2022/04/13 09:24:18;;;;;;;3.80;1.53;;;;;;;18.13;49.31;100360.38;5070532;28;20180;-72
2022/04/13 09:26:45;;;;;;;3.60;1.60;;;;;;;18.21;49.20;100364.88;5070442;28;20250;-72
2022/04/13 09:29:11;;;;;;;1.30;1.20;;;;;;;18.22;49.65;100369.25;5070234;28;20197;-73
2022/04/13 09:31:36;;;;;;;2.90;1.50;;;;;;;18.21;49.64;100364.88;5070532;28;20210;-72
2022/04/13 09:34:02;;;;;;;2.47;1.50;;;;;;;18.26;49.90;100378.44;5070436;28;20660;-72
2022/04/13 09:36:28;;;;;;;5.80;1.50;;;;;;;18.26;49.50;100372.09;5069944;28;20598;-72
2022/04/13 09:38:54;;;;;;;2.37;1.80;;;;;;;18.32;49.85;100381.69;5070048;28;20545;-72
2022/04/13 09:41:31;;;;;;;2.10;1.70;;;;;;;18.33;48.56;100373.03;5070452;28;20262;-72
2022/04/13 09:43:56;;;;;;;2.23;1.70;;;;;;;18.47;49.73;100377.22;5070347;28;20399;-73
2022/04/13 09:46:31;;;;;;;3.27;1.60;;;;;;;18.57;49.99;100373.88;5070260;28;20265;-73
2022/04/13 09:49:14;;;;;;;2.30;1.77;;;;;;;18.61;50.46;100371.97;5070060;28;20209;-72
2022/04/13 09:51:42;;;;;;;1.70;1.60;;;;;;;18.72;49.91;100373.78;5070331;28;20202;-71
2022/04/13 09:54:11;;;;;;;3.50;1.80;;;;;;;18.78;49.67;100379.00;5070729;28;20198;-72
2022/04/13 09:56:38;;;;;;;1.80;1.70;;;;;;;18.74;49.04;100373.44;5070321;28;20175;-72
2022/04/13 09:59:07;;;;;;;3.17;1.90;;;;;;;18.80;49.63;100374.72;5070296;28;20174;-72
2022/04/13 10:01:34;;;;;;;3.43;1.80;;;;;;;18.79;49.23;100380.63;5070172;28;20206;-72
2022/04/13 10:03:59;;;;;;;2.23;1.40;;;;;;;18.91;50.23;100385.97;5070159;28;20174;-71
2022/04/13 10:06:28;;;;;;;2.50;1.80;;;;;;;19.06;50.77;100384.25;5070085;28;20648;-72
2022/04/13 10:09:00;;;;;;;2.43;1.40;;;;;;;19.04;50.06;100390.16;5069952;28;20200;-72
2022/04/13 10:11:26;;;;;;;2.67;1.50;;;;;;;19.10;50.22;100385.13;5069930;28;20194;-72
2022/04/13 10:13:51;;;;;;;2.30;1.93;;;;;;;19.09;50.01;100386.28;5070393;28;20191;-72
2022/04/13 10:16:16;;;;;;;4.57;2.20;;;;;;;19.29;51.07;100385.84;5069999;28;20202;-71
2022/04/13 10:18:58;;;;;;;3.13;1.97;;;;;;;19.37;50.52;100391.47;5069639;28;20171;-72
2022/04/13 10:21:35;;;;;;;3.80;1.50;;;;;;;19.50;51.56;100384.56;5070050;28;20182;-72
2022/04/13 10:24:02;;;;;;;2.90;1.73;;;;;;;19.50;50.29;100390.09;5069928;28;20173;-71
2022/04/13 10:26:27;;;;;;;2.83;2.03;;;;;;;19.57;49.89;100388.28;5070035;28;20195;-72
2022/04/13 10:28:52;;;;;;;3.33;1.90;;;;;;;19.70;49.87;100388.06;5070106;28;20205;-72
2022/04/13 10:31:18;;;;;;;6.43;1.83;;;;;;;19.79;50.50;100383.03;5069658;28;20281;-72
2022/04/13 10:33:50;;;;;;;2.53;1.73;;;;;;;19.73;49.89;100382.56;5069845;28;20167;-71
2022/04/13 10:36:18;;;;;;;3.43;1.93;;;;;;;19.82;49.53;100379.53;5069761;28;20582;-72
2022/04/13 10:38:44;;;;;;;3.37;2.07;;;;;;;19.85;49.30;100376.78;5069500;28;20648;-72
2022/04/13 10:41:15;;;;;;;3.67;1.90;;;;;;;19.86;51.42;100388.69;5069873;28;20174;-72
2022/04/13 10:43:46;;;;;;;3.73;2.20;;;;;;;20.03;50.57;100390.88;5069738;28;20626;-72
2022/04/13 10:46:14;;;;;;;3.03;1.90;;;;;;;20.14;50.18;100389.06;5069695;28;20184;-71
2022/04/13 10:48:43;;;;;;;2.47;1.80;;;;;;;20.10;48.69;100390.16;5070277;28;20221;-72
2022/04/13 10:51:12;;;;;;;3.47;1.90;;;;;;;20.03;49.29;100385.34;5073348;28;20648;-71
2022/04/13 10:53:46;;;;;;;2.67;1.80;;;;;;;19.90;49.63;100378.44;5073367;28;20175;-71
2022/04/13 10:56:12;;;;;;;2.87;1.90;;;;;;;20.19;51.24;100394.25;5073168;28;20178;-71
2022/04/13 10:58:44;;;;;;;5.03;1.57;;;;;;;20.19;50.07;100385.94;5073279;28;20230;-72
2022/04/13 11:01:12;;;;;;;4.43;1.60;;;;;;;20.23;50.63;100390.72;5073164;28;20172;-71
2022/04/13 11:03:38;;;;;;;3.03;1.77;;;;;;;20.42;50.48;100394.16;5073307;28;20603;-72
2022/04/13 11:06:06;;;;;;;2.20;1.87;;;;;;;20.23;50.05;100399.84;5073100;28;20254;-71
2022/04/13 11:08:46;;;;;;;2.97;1.80;;;;;;;20.35;49.84;100399.59;5072836;28;20175;-72
2022/04/13 11:11:20;;;;;;;3.93;1.90;;;;;;;20.44;50.65;100402.91;5072603;28;20167;-72
2022/04/13 11:13:48;;;;;;;2.50;1.40;;;;;;;20.53;50.59;100402.59;5072834;28;20221;-72
2022/04/13 11:16:21;;;;;;;6.13;1.80;;;;;;;20.51;50.38;100402.19;5072907;28;20580;-72
2022/04/13 11:19:02;;;;;;;5.47;1.90;;;;;;;20.60;49.25;100399.13;5072950;28;20178;-72
2022/04/13 11:21:29;;;;;;;7.80;2.13;;;;;;;20.64;48.96;100400.75;5072740;28;20205;-72
2022/04/13 11:23:54;;;;;;;2.87;1.80;;;;;;;20.70;49.21;100398.44;5072749;28;20578;-72
2022/04/13 11:26:35;;;;;;;3.57;2.00;;;;;;;20.52;49.24;100398.22;5072673;28;20465;-72
2022/04/13 11:29:10;;;;;;;4.07;1.80;;;;;;;20.64;49.38;100395.19;5072732;28;20206;-72